Time;durP1;ratioP1;P1;durP2;ratioP2;P2;SDS_P1;SDS_P2;PMS_P1;PMS_P2;Temp;Humidity;BMP_temperature;BMP_pressure;BME280_temperature;BME280_humidity;BME280_pressure;Samples;Min_cycle;Max_cycle;Signal;HPM_P1;HPM_P2
2021/04/25 00:00:59;;;;;;;7.90;2.67;;;4.60;62.40;;;;;;5030950;28;20554;-65
2021/04/25 00:03:24;;;;;;;8.97;2.67;;;4.60;62.40;;;;;;5031465;28;20113;-67
2021/04/25 00:05:50;;;;;;;10.33;2.70;;;4.60;62.70;;;;;;5031282;28;20060;-67
2021/04/25 00:08:15;;;;;;;11.73;2.70;;;4.50;62.80;;;;;;5030216;28;20045;-65
2021/04/25 00:10:42;;;;;;;10.63;2.90;;;4.50;62.80;;;;;;5031243;28;20033;-66
2021/04/25 00:13:08;;;;;;;8.97;2.97;;;4.50;63.10;;;;;;5030797;28;20033;-64
2021/04/25 00:15:34;;;;;;;9.70;2.83;;;4.50;63.20;;;;;;5030777;28;20090;-65
2021/04/25 00:18:00;;;;;;;8.40;2.77;;;4.50;63.30;;;;;;5031011;28;20064;-65
2021/04/25 00:20:26;;;;;;;11.60;2.83;;;4.40;63.30;;;;;;5030428;28;20067;-65
2021/04/25 00:22:51;;;;;;;11.07;2.83;;;4.50;63.40;;;;;;5031031;28;20037;-66
2021/04/25 00:25:18;;;;;;;6.87;2.30;;;4.50;63.50;;;;;;5014086;28;20411;-62
2021/04/25 00:27:45;;;;;;;8.10;2.63;;;4.40;63.40;;;;;;5030205;28;20040;-62
2021/04/25 00:30:14;;;;;;;10.10;2.60;;;4.40;63.40;;;;;;5013274;28;20604;-62
2021/04/25 00:32:40;;;;;;;8.33;2.60;;;4.40;63.60;;;;;;5030645;28;20045;-62
2021/04/25 00:35:07;;;;;;;8.13;2.40;;;4.30;63.70;;;;;;5030266;28;20040;-62
2021/04/25 00:37:33;;;;;;;7.43;2.53;;;4.30;63.70;;;;;;5013027;28;20075;-62
2021/04/25 00:39:58;;;;;;;9.20;2.63;;;4.20;63.90;;;;;;5030554;28;20042;-62
2021/04/25 00:42:24;;;;;;;8.70;2.80;;;4.20;64.20;;;;;;5030941;28;20065;-62
2021/04/25 00:44:50;;;;;;;9.00;2.20;;;4.20;64.50;;;;;;5030481;28;20505;-62
2021/04/25 00:47:15;;;;;;;14.17;2.90;;;4.20;64.50;;;;;;5013077;28;20068;-62
2021/04/25 00:49:41;;;;;;;9.17;3.07;;;4.20;64.60;;;;;;5030806;28;20041;-62
2021/04/25 00:52:08;;;;;;;9.77;2.50;;;4.20;64.70;;;;;;5012432;28;20038;-62
2021/04/25 00:54:35;;;;;;;7.93;2.60;;;4.20;64.70;;;;;;5030861;28;20030;-62
2021/04/25 00:57:01;;;;;;;11.70;2.70;;;4.20;64.80;;;;;;5030102;28;20064;-62
2021/04/25 00:59:28;;;;;;;8.67;2.30;;;4.10;64.80;;;;;;5013197;28;20116;-64
2021/04/25 01:01:54;;;;;;;8.57;2.50;;;4.10;64.90;;;;;;5013088;28;20038;-65
2021/04/25 01:04:20;;;;;;;9.70;2.97;;;4.00;64.90;;;;;;5012451;28;20087;-64
2021/04/25 01:06:46;;;;;;;9.00;2.40;;;4.00;65.10;;;;;;5030538;28;20037;-64
2021/04/25 01:09:11;;;;;;;7.47;2.57;;;4.00;65.30;;;;;;5029844;28;20514;-64
2021/04/25 01:11:37;;;;;;;9.40;2.50;;;3.90;65.10;;;;;;5030578;28;20072;-64
2021/04/25 01:14:03;;;;;;;9.13;2.57;;;3.90;65.40;;;;;;5030676;28;20554;-64
2021/04/25 01:16:28;;;;;;;13.03;3.30;;;3.90;65.50;;;;;;5030066;28;20616;-64
2021/04/25 01:18:55;;;;;;;9.43;2.13;;;3.80;65.80;;;;;;5030442;28;20053;-64
2021/04/25 01:21:22;;;;;;;8.53;2.40;;;3.80;65.80;;;;;;5030332;28;20494;-64
2021/04/25 01:23:48;;;;;;;6.57;2.20;;;3.80;65.90;;;;;;5030225;28;20121;-64
2021/04/25 01:26:15;;;;;;;7.43;2.60;;;3.80;65.90;;;;;;5030557;28;20045;-65
2021/04/25 01:28:40;;;;;;;9.40;2.47;;;3.70;66.00;;;;;;5029785;28;20050;-66
2021/04/25 01:31:06;;;;;;;11.63;2.40;;;3.70;66.20;;;;;;5013101;28;20039;-65
2021/04/25 01:33:33;;;;;;;8.47;2.47;;;3.60;66.20;;;;;;5030398;28;20042;-64
2021/04/25 01:36:00;;;;;;;13.07;2.57;;;3.60;66.20;;;;;;5029674;28;20048;-64
2021/04/25 01:38:25;;;;;;;7.60;2.17;;;3.60;66.30;;;;;;5012535;28;20041;-65
2021/04/25 01:40:51;;;;;;;9.73;2.50;;;3.50;66.50;;;;;;5029818;28;20095;-65
2021/04/25 01:43:17;;;;;;;12.43;2.60;;;3.50;66.60;;;;;;4996539;28;20045;-65
2021/04/25 01:45:42;;;;;;;8.37;2.07;;;3.50;66.60;;;;;;5031583;28;20037;-62
2021/04/25 01:48:09;;;;;;;9.20;2.63;;;3.40;66.70;;;;;;5033117;28;20038;-62
2021/04/25 01:50:36;;;;;;;10.70;2.53;;;3.40;66.70;;;;;;5033700;28;20053;-62
2021/04/25 01:53:03;;;;;;;6.93;2.57;;;3.30;67.00;;;;;;5033227;28;20038;-62
2021/04/25 01:55:31;;;;;;;9.80;2.50;;;3.30;67.20;;;;;;5033999;28;20068;-62
2021/04/25 01:57:58;;;;;;;9.00;2.33;;;3.30;67.30;;;;;;5033807;28;20079;-65
2021/04/25 02:00:29;;;;;;;12.57;2.80;;;3.30;67.40;;;;;;5033241;28;20037;-66
2021/04/25 02:02:55;;;;;;;10.15;2.55;;;3.30;67.50;;;;;;5033756;28;20042;-66
2021/04/25 02:05:23;;;;;;;11.73;2.70;;;3.20;67.50;;;;;;5033200;28;20489;-64
2021/04/25 02:07:48;;;;;;;10.20;2.17;;;3.20;67.70;;;;;;5015439;28;20125;-65
2021/04/25 02:10:15;;;;;;;8.43;2.40;;;3.20;67.70;;;;;;4999367;28;20145;-65
2021/04/25 02:12:40;;;;;;;10.30;2.63;;;3.20;67.70;;;;;;5015329;28;20061;-66
2021/04/25 02:15:08;;;;;;;11.03;3.00;;;3.10;67.80;;;;;;5033341;28;20053;-66
2021/04/25 02:17:34;;;;;;;12.53;2.67;;;3.10;68.10;;;;;;5014755;28;20498;-64
2021/04/25 02:19:59;;;;;;;9.90;2.40;;;3.00;68.30;;;;;;5033282;28;20037;-62
2021/04/25 02:22:27;;;;;;;8.90;2.60;;;3.00;68.40;;;;;;5033110;28;20040;-62
2021/04/25 02:24:52;;;;;;;6.83;2.40;;;3.00;68.40;;;;;;5032754;28;20401;-64
2021/04/25 02:27:18;;;;;;;8.43;2.77;;;3.00;68.60;;;;;;5032751;28;20056;-65
2021/04/25 02:29:44;;;;;;;12.23;2.80;;;3.00;68.50;;;;;;5033117;28;20045;-65
2021/04/25 02:32:10;;;;;;;14.30;3.23;;;3.00;68.50;;;;;;5014905;28;20045;-64
2021/04/25 02:34:36;;;;;;;11.37;2.60;;;2.90;68.50;;;;;;5032943;28;20038;-64
2021/04/25 02:37:01;;;;;;;9.23;2.80;;;2.90;68.60;;;;;;5032175;28;20032;-63
2021/04/25 02:39:27;;;;;;;6.83;2.47;;;2.90;68.80;;;;;;5032978;28;20030;-64
2021/04/25 02:41:53;;;;;;;9.83;2.90;;;2.90;68.90;;;;;;5032817;28;20040;-64
2021/04/25 02:44:19;;;;;;;10.93;3.17;;;2.80;69.30;;;;;;5014797;28;20039;-64
2021/04/25 02:46:45;;;;;;;13.17;3.13;;;2.80;69.20;;;;;;5032681;28;20136;-64
2021/04/25 02:49:11;;;;;;;12.17;3.00;;;2.80;69.40;;;;;;5031748;28;20029;-61
2021/04/25 02:51:36;;;;;;;7.43;2.67;;;2.70;69.40;;;;;;5032600;28;20379;-61
2021/04/25 02:54:02;;;;;;;11.00;2.80;;;2.70;69.60;;;;;;5032511;28;20125;-61
2021/04/25 02:56:28;;;;;;;11.37;2.67;;;2.70;69.50;;;;;;5014341;28;20041;-61
2021/04/25 02:58:54;;;;;;;11.33;3.10;;;2.70;69.60;;;;;;5031788;28;20502;-61
2021/04/25 03:01:19;;;;;;;9.27;2.50;;;2.70;69.80;;;;;;5014807;28;20037;-61
2021/04/25 03:03:46;;;;;;;13.07;3.00;;;2.70;69.90;;;;;;5031874;28;20034;-64
2021/04/25 03:06:12;;;;;;;10.07;3.03;;;2.60;69.90;;;;;;5032490;28;20037;-64
2021/04/25 03:08:37;;;;;;;13.97;2.70;;;2.60;69.90;;;;;;5014004;28;20144;-64
2021/04/25 03:11:03;;;;;;;8.67;2.70;;;2.60;69.90;;;;;;5032394;28;20446;-64
2021/04/25 03:13:29;;;;;;;9.37;2.80;;;2.50;69.70;;;;;;5032173;28;20061;-64
2021/04/25 03:15:54;;;;;;;10.93;2.97;;;2.50;69.60;;;;;;5031528;28;20091;-64
2021/04/25 03:18:20;;;;;;;11.53;2.93;;;2.50;69.80;;;;;;5031903;28;20124;-64
2021/04/25 03:20:46;;;;;;;8.90;2.87;;;2.40;69.90;;;;;;5031413;28;20050;-64
2021/04/25 03:23:11;;;;;;;10.23;2.83;;;2.30;70.10;;;;;;5031995;28;20041;-64
2021/04/25 03:25:37;;;;;;;10.63;3.37;;;2.30;70.30;;;;;;5031915;28;20034;-64
2021/04/25 03:28:04;;;;;;;11.40;3.20;;;2.30;70.40;;;;;;5013282;28;20116;-64
2021/04/25 03:30:30;;;;;;;11.17;3.13;;;2.30;70.60;;;;;;5031865;28;20045;-64
2021/04/25 03:32:55;;;;;;;9.50;3.00;;;2.30;70.80;;;;;;5014083;28;20045;-64
2021/04/25 03:35:21;;;;;;;10.07;3.10;;;2.30;71.00;;;;;;5031465;28;20555;-65
2021/04/25 03:37:48;;;;;;;13.53;3.20;;;2.30;71.00;;;;;;5013824;28;20044;-65
2021/04/25 03:40:17;;;;;;;16.83;3.67;;;2.30;71.10;;;;;;5031271;28;20091;-64
2021/04/25 03:42:43;;;;;;;9.77;3.07;;;2.30;71.20;;;;;;5031658;28;20041;-65
2021/04/25 03:45:14;;;;;;;9.93;2.83;;;2.30;71.20;;;;;;5031628;28;20037;-65
2021/04/25 03:47:44;;;;;;;10.73;3.05;;;2.20;71.70;;;;;;4997456;28;20044;-65
2021/04/25 03:50:12;;;;;;;13.27;3.63;;;2.20;71.30;;;;;;5031563;28;20038;-64
2021/04/25 03:52:37;;;;;;;12.00;3.50;;;2.20;71.20;;;;;;5031132;28;20391;-61
2021/04/25 03:55:04;;;;;;;9.60;3.77;;;2.20;71.40;;;;;;5031652;28;20099;-61
2021/04/25 03:57:30;;;;;;;8.07;3.00;;;2.20;71.50;;;;;;5031114;28;20525;-61
2021/04/25 03:59:55;;;;;;;8.80;3.13;;;2.10;71.50;;;;;;5031267;28;20042;-60
2021/04/25 04:02:21;;;;;;;11.70;3.00;;;2.10;71.70;;;;;;5031451;28;20045;-61
2021/04/25 04:04:47;;;;;;;13.37;3.60;;;2.10;72.10;;;;;;5030958;28;20064;-61
2021/04/25 04:07:12;;;;;;;9.47;2.93;;;2.10;72.40;;;;;;5031867;28;20045;-64
2021/04/25 04:09:39;;;;;;;8.73;2.90;;;2.00;72.50;;;;;;5014644;28;20045;-66
2021/04/25 04:12:07;;;;;;;9.97;3.20;;;2.00;72.50;;;;;;5031238;28;20037;-61
2021/04/25 04:14:32;;;;;;;9.70;3.23;;;2.10;72.70;;;;;;5031920;28;20508;-66
2021/04/25 04:16:58;;;;;;;12.30;3.43;;;2.10;72.80;;;;;;5031616;28;20061;-66
2021/04/25 04:19:24;;;;;;;12.07;2.83;;;2.20;72.90;;;;;;5031218;28;20033;-61
2021/04/25 04:21:50;;;;;;;10.97;3.30;;;2.20;72.80;;;;;;5031672;28;20037;-64
2021/04/25 04:24:16;;;;;;;10.23;3.13;;;2.20;73.00;;;;;;5030958;28;20570;-61
2021/04/25 04:26:41;;;;;;;9.47;2.97;;;2.30;73.10;;;;;;5013336;28;20076;-61
2021/04/25 04:29:07;;;;;;;7.77;2.83;;;2.30;73.20;;;;;;5031061;28;20029;-61
2021/04/25 04:31:32;;;;;;;10.20;3.10;;;2.30;73.30;;;;;;4996709;28;21056;-61
2021/04/25 04:33:58;;;;;;;8.53;2.97;;;2.30;73.30;;;;;;5031165;28;20038;-61
2021/04/25 04:36:24;;;;;;;7.77;2.90;;;2.40;73.50;;;;;;5030589;28;20045;-61
2021/04/25 04:38:49;;;;;;;8.33;2.97;;;2.40;73.70;;;;;;5030685;28;20045;-61
2021/04/25 04:41:15;;;;;;;10.37;3.00;;;2.40;73.90;;;;;;5013228;28;20157;-61
2021/04/25 04:43:41;;;;;;;10.33;3.17;;;2.50;74.10;;;;;;5030316;28;20091;-61
2021/04/25 04:46:06;;;;;;;8.47;2.90;;;2.50;74.10;;;;;;5031274;28;20494;-66
2021/04/25 04:48:32;;;;;;;8.50;2.93;;;2.60;74.20;;;;;;5030716;28;20045;-66
2021/04/25 04:50:57;;;;;;;10.13;3.13;;;2.70;74.50;;;;;;5012915;28;20107;-65
2021/04/25 04:53:23;;;;;;;8.97;2.93;;;2.70;74.60;;;;;;5031136;28;20395;-66
2021/04/25 04:55:49;;;;;;;13.37;3.67;;;2.80;74.50;;;;;;5030319;28;20038;-65
2021/04/25 04:58:14;;;;;;;8.47;3.47;;;2.90;74.50;;;;;;4980650;28;20124;-61
2021/04/25 05:00:40;;;;;;;12.90;4.00;;;2.90;74.60;;;;;;5013070;28;20469;-61
2021/04/25 05:03:05;;;;;;;11.00;3.77;;;3.00;74.90;;;;;;5030433;28;20041;-61
2021/04/25 05:05:31;;;;;;;9.03;3.20;;;3.10;75.30;;;;;;5030849;28;20293;-61
2021/04/25 05:07:57;;;;;;;16.40;3.67;;;3.30;75.80;;;;;;5012936;28;20045;-61
2021/04/25 05:10:22;;;;;;;10.30;3.00;;;3.50;76.10;;;;;;5030158;28;20029;-61
2021/04/25 05:12:48;;;;;;;9.53;3.33;;;3.90;76.50;;;;;;4996802;28;20547;-61
2021/04/25 05:15:14;;;;;;;11.53;2.73;;;4.20;76.50;;;;;;5030279;28;20052;-61
2021/04/25 05:17:40;;;;;;;10.00;2.53;;;4.80;78.30;;;;;;5030461;28;20168;-64
2021/04/25 05:20:06;;;;;;;7.17;2.43;;;5.50;79.40;;;;;;5013401;28;20037;-65
2021/04/25 05:22:31;;;;;;;7.47;2.43;;;6.30;79.00;;;;;;5034086;28;20046;-66
2021/04/25 05:24:57;;;;;;;7.40;2.17;;;7.00;77.90;;;;;;5016904;28;20041;-65
2021/04/25 05:27:23;;;;;;;8.57;2.50;;;7.50;77.10;;;;;;5033591;28;20049;-64
2021/04/25 05:29:48;;;;;;;7.27;2.17;;;7.60;73.00;;;;;;5036025;28;20025;-64
2021/04/25 05:32:15;;;;;;;6.00;2.20;;;7.30;70.60;;;;;;5019806;28;20049;-65
2021/04/25 05:34:41;;;;;;;8.77;2.13;;;7.00;70.00;;;;;;5036057;28;20033;-65
2021/04/25 05:37:06;;;;;;;8.70;2.30;;;6.70;69.90;;;;;;5035892;28;20042;-65
2021/04/25 05:39:32;;;;;;;11.67;2.90;;;6.50;70.10;;;;;;5016800;28;20060;-65
2021/04/25 05:41:59;;;;;;;8.57;2.40;;;6.50;70.70;;;;;;5033744;28;20072;-64
2021/04/25 05:44:27;;;;;;;8.23;2.20;;;6.90;73.00;;;;;;5034210;28;20410;-65
2021/04/25 05:46:54;;;;;;;8.10;2.10;;;7.20;71.90;;;;;;5033251;28;20052;-68
2021/04/25 05:49:20;;;;;;;6.10;2.03;;;7.60;72.20;;;;;;5033874;28;20478;-65
2021/04/25 05:51:47;;;;;;;8.77;2.20;;;7.80;70.60;;;;;;5033733;28;20041;-66
2021/04/25 05:54:13;;;;;;;9.00;2.53;;;8.00;70.10;;;;;;4999233;28;20041;-65
2021/04/25 05:56:39;;;;;;;8.13;2.23;;;8.50;72.10;;;;;;5033807;28;20041;-65
2021/04/25 05:59:05;;;;;;;8.10;2.00;;;9.00;69.90;;;;;;5015502;28;20041;-64
2021/04/25 06:01:31;;;;;;;6.43;1.93;;;9.00;67.00;;;;;;5033666;28;20077;-66
2021/04/25 06:03:57;;;;;;;9.37;2.13;;;8.90;65.40;;;;;;5033628;28;20029;-66
2021/04/25 06:06:24;;;;;;;7.80;2.40;;;8.90;66.00;;;;;;5033180;28;20034;-67
2021/04/25 06:08:50;;;;;;;6.97;2.23;;;9.10;66.70;;;;;;4999212;28;20041;-67
2021/04/25 06:11:16;;;;;;;7.70;1.90;;;9.60;67.40;;;;;;5032913;28;20041;-67
2021/04/25 06:13:41;;;;;;;7.43;2.10;;;10.00;65.60;;;;;;5015686;28;20041;-67
2021/04/25 06:16:07;;;;;;;4.88;1.75;;;10.00;63.80;;;;;;5033144;28;20052;-66
2021/04/25 06:18:33;;;;;;;6.88;1.92;;;10.10;63.60;;;;;;5032514;28;20114;-62
2021/04/25 06:20:58;;;;;;;7.32;2.08;;;10.50;64.50;;;;;;5033056;28;20040;-62
2021/04/25 06:23:24;;;;;;;6.32;2.20;;;11.10;66.20;;;;;;5033637;28;20505;-62
2021/04/25 06:25:50;;;;;;;8.00;2.30;;;12.10;66.60;;;;;;5032583;28;20055;-62
2021/04/25 06:28:15;;;;;;;7.90;2.03;;;13.50;66.40;;;;;;5014932;28;20528;-60
2021/04/25 06:30:41;;;;;;;7.53;2.00;;;14.70;64.40;;;;;;5032254;28;20089;-63
2021/04/25 06:33:07;;;;;;;5.28;1.70;;;16.00;63.10;;;;;;5013922;28;20044;-63
2021/04/25 06:35:33;;;;;;;7.82;1.95;;;17.40;60.90;;;;;;5032864;28;20104;-62
2021/04/25 06:37:58;;;;;;;5.53;1.80;;;18.40;58.40;;;;;;5031912;28;20087;-63
2021/04/25 06:40:24;;;;;;;6.22;1.55;;;19.50;55.60;;;;;;5032869;28;20046;-63
2021/04/25 06:42:50;;;;;;;5.95;1.65;;;20.40;52.60;;;;;;5032739;28;20045;-63
2021/04/25 06:45:20;;;;;;;6.68;1.80;;;21.30;50.10;;;;;;5032344;28;20029;-63
2021/04/25 06:47:47;;;;;;;5.07;1.70;;;22.00;46.80;;;;;;5032349;28;20052;-63
2021/04/25 06:50:14;;;;;;;5.60;1.70;;;22.40;44.70;;;;;;5031365;28;20045;-64
2021/04/25 06:52:45;;;;;;;3.88;1.35;;;23.00;42.00;;;;;;5032407;28;20041;-69
2021/04/25 06:55:15;;;;;;;4.78;1.50;;;23.30;39.90;;;;;;5031981;28;20037;-68
2021/04/25 06:57:40;;;;;;;;;;;23.60;39.30;;;;;;5032622;28;20497;-66
2021/04/25 07:00:07;;;;;;;5.90;1.70;;;24.30;39.00;;;;;;5032399;28;19940;-66
2021/04/25 07:02:34;;;;;;;5.90;1.50;;;24.90;37.20;;;;;;5031581;28;20116;-67
2021/04/25 07:05:00;;;;;;;4.25;1.30;;;25.40;35.20;;;;;;5014968;28;20044;-70
2021/04/25 07:07:25;;;;;;;4.75;1.45;;;25.80;33.50;;;;;;5031394;28;20037;-69
2021/04/25 07:09:51;;;;;;;5.85;1.60;;;26.30;31.90;;;;;;5032214;28;20517;-70
2021/04/25 07:12:16;;;;;;;3.67;1.13;;;26.50;30.50;;;;;;4998438;28;20048;-70
2021/04/25 07:14:42;;;;;;;4.20;1.15;;;26.60;29.80;;;;;;5014026;28;20040;-69
2021/04/25 07:17:08;;;;;;;4.05;1.33;;;26.70;29.10;;;;;;5031773;28;20045;-69
2021/04/25 07:19:33;;;;;;;2.80;1.10;;;26.90;28.60;;;;;;5013827;28;20063;-69
2021/04/25 07:21:59;;;;;;;2.25;1.00;;;27.30;28.40;;;;;;5014179;28;20065;-70
2021/04/25 07:24:25;;;;;;;3.65;1.10;;;27.90;27.90;;;;;;5031871;28;20038;-70
2021/04/25 07:26:53;;;;;;;2.17;0.93;;;28.60;27.60;;;;;;5013988;28;20049;-67
2021/04/25 07:29:19;;;;;;;3.05;1.10;;;28.80;26.50;;;;;;5031713;28;20402;-68
2021/04/25 07:31:44;;;;;;;2.75;1.00;;;29.00;25.30;;;;;;5031838;28;20041;-68
2021/04/25 07:34:11;;;;;;;3.97;0.98;;;28.90;25.10;;;;;;5031216;28;20060;-68
2021/04/25 07:36:36;;;;;;;4.05;1.05;;;29.00;24.80;;;;;;5031793;28;20048;-68
2021/04/25 07:39:04;;;;;;;2.72;0.85;;;29.50;24.60;;;;;;5030721;28;20049;-69
2021/04/25 07:41:30;;;;;;;3.22;0.90;;;30.20;24.10;;;;;;5031724;28;20116;-69
2021/04/25 07:43:56;;;;;;;3.40;0.90;;;30.70;23.70;;;;;;5031286;28;20108;-69
2021/04/25 07:46:23;;;;;;;4.35;1.10;;;31.10;23.30;;;;;;5031021;28;20041;-68
2021/04/25 07:48:48;;;;;;;4.13;0.93;;;31.40;23.00;;;;;;5030963;28;20057;-68
2021/04/25 07:51:14;;;;;;;2.13;0.90;;;31.60;22.50;;;;;;5031358;28;20513;-68
2021/04/25 07:53:40;;;;;;;3.28;1.00;;;31.10;21.70;;;;;;5031117;28;20833;-68
2021/04/25 07:56:06;;;;;;;2.85;1.10;;;31.10;22.10;;;;;;5013671;28;20037;-68
2021/04/25 07:58:32;;;;;;;5.10;1.15;;;31.70;22.10;;;;;;5030488;28;20136;-67
2021/04/25 08:00:57;;;;;;;2.80;0.90;;;32.50;21.90;;;;;;5031204;28;20510;-68
2021/04/25 08:03:23;;;;;;;2.70;1.00;;;32.70;21.50;;;;;;5031184;28;20069;-68
2021/04/25 08:05:49;;;;;;;3.28;1.00;;;32.90;21.60;;;;;;5030738;28;20496;-68
2021/04/25 08:08:14;;;;;;;4.82;1.00;;;33.40;21.30;;;;;;5030792;28;20119;-67
2021/04/25 08:10:41;;;;;;;2.85;0.95;;;33.50;20.80;;;;;;5030600;28;20310;-69
2021/04/25 08:13:08;;;;;;;2.70;1.00;;;33.10;20.10;;;;;;5031346;28;20036;-68
2021/04/25 08:15:33;;;;;;;2.55;0.80;;;32.00;20.30;;;;;;5031123;28;20493;-68
2021/04/25 08:18:00;;;;;;;4.30;1.00;;;32.00;20.60;;;;;;5030043;28;20271;-68
2021/04/25 08:20:26;;;;;;;2.60;1.00;;;30.40;19.40;;;;;;5030893;28;20037;-68
2021/04/25 08:22:52;;;;;;;4.18;0.85;;;27.20;18.90;;;;;;5030446;28;20041;-66
2021/04/25 08:25:18;;;;;;;2.22;0.75;;;24.20;19.60;;;;;;5030808;28;20118;-68
2021/04/25 08:27:44;;;;;;;1.92;0.80;;;22.00;20.50;;;;;;5030464;28;20445;-68
2021/04/25 08:30:11;;;;;;;2.35;0.90;;;20.70;21.80;;;;;;5030232;28;20044;-67
2021/04/25 08:32:36;;;;;;;2.58;0.70;;;21.90;24.20;;;;;;5030845;28;20565;-68
2021/04/25 08:35:04;;;;;;;1.65;0.90;;;24.40;23.40;;;;;;5030770;28;20116;-66
2021/04/25 08:37:30;;;;;;;2.15;0.82;;;24.20;21.10;;;;;;5030096;28;20546;-67
2021/04/25 08:39:56;;;;;;;1.30;0.70;;;24.50;22.00;;;;;;5030465;28;20128;-67
2021/04/25 08:42:21;;;;;;;1.88;0.85;;;24.50;20.70;;;;;;5012464;28;20037;-66
2021/04/25 08:44:47;;;;;;;3.83;0.88;;;23.00;20.70;;;;;;5030076;28;20058;-69
2021/04/25 08:47:14;;;;;;;3.05;0.90;;;21.70;21.10;;;;;;5010402;28;20125;-66
2021/04/25 08:49:41;;;;;;;1.98;0.90;;;23.10;23.20;;;;;;5011709;28;20072;-64
2021/04/25 08:52:09;;;;;;;3.53;0.88;;;24.70;21.80;;;;;;4979263;28;20037;-63
2021/04/25 08:54:35;;;;;;;2.22;0.90;;;23.80;20.10;;;;;;5029084;28;20108;-63
2021/04/25 08:57:00;;;;;;;3.47;1.20;;;23.30;21.10;;;;;;5032837;28;20045;-64
2021/04/25 08:59:26;;;;;;;3.13;1.05;;;23.40;21.30;;;;;;5033494;28;20041;-64
2021/04/25 09:01:52;;;;;;;2.90;1.05;;;23.30;21.00;;;;;;5033555;28;20596;-63
2021/04/25 09:04:18;;;;;;;3.17;0.80;;;22.40;20.60;;;;;;5034611;28;20387;-63
2021/04/25 09:07:09;;;;;;;3.03;0.90;;;20.90;20.80;;;;;;5034102;28;20053;-63
2021/04/25 09:10:07;;;;;;;3.38;1.10;;;19.30;21.40;;;;;;5034424;28;20136;-63
2021/04/25 09:12:44;;;;;;;2.45;1.02;;;18.00;22.50;;;;;;5033239;28;20045;-63
2021/04/25 09:15:12;;;;;;;3.35;0.80;;;19.90;25.00;;;;;;5034469;28;20038;-63
2021/04/25 09:17:51;;;;;;;2.65;0.90;;;24.20;24.40;;;;;;5015971;28;20057;-63
2021/04/25 09:20:18;;;;;;;1.88;0.88;;;28.30;23.00;;;;;;5034026;28;20057;-64
2021/04/25 09:22:46;;;;;;;2.40;1.10;;;31.40;22.00;;;;;;5015993;28;20502;-64
2021/04/25 09:25:15;;;;;;;1.95;0.70;;;33.60;21.00;;;;;;5034006;28;20147;-65
2021/04/25 09:27:42;;;;;;;1.80;0.70;;;35.10;19.50;;;;;;5033501;28;20045;-65
2021/04/25 09:30:09;;;;;;;3.03;0.70;;;35.60;18.50;;;;;;5016527;28;20409;-75
2021/04/25 09:32:35;;;;;;;2.03;0.80;;;35.60;17.80;;;;;;5016439;28;20051;-75
2021/04/25 09:35:10;;;;;;;3.83;0.70;;;36.10;17.50;;;;;;4999606;28;20037;-76
2021/04/25 09:37:38;;;;;;;2.67;0.70;;;36.80;17.60;;;;;;5015912;28;20083;-75
2021/04/25 09:40:07;;;;;;;1.90;0.77;;;37.50;17.30;;;;;;4999186;28;20033;-63
2021/04/25 09:42:59;;;;;;;3.78;0.70;;;38.30;17.10;;;;;;5033833;28;20040;-62
2021/04/25 09:45:31;;;;;;;0.93;0.70;;;39.10;17.00;;;;;;5033709;28;20528;-67
2021/04/25 09:47:58;;;;;;;1.02;0.50;;;39.70;16.50;;;;;;5033659;28;20490;-68
2021/04/25 09:50:24;;;;;;;3.35;0.60;;;40.10;16.40;;;;;;5033199;28;20033;-67
2021/04/25 09:52:51;;;;;;;2.15;0.73;;;40.00;16.00;;;;;;5033851;28;20048;-67
2021/04/25 09:55:25;;;;;;;1.67;0.70;;;40.30;16.20;;;;;;5033705;28;20096;-66
2021/04/25 09:57:54;;;;;;;1.25;0.68;;;39.00;15.40;;;;;;5033007;28;20064;-65
2021/04/25 10:00:20;;;;;;;2.03;0.65;;;35.60;14.90;;;;;;5033555;28;20037;-65
2021/04/25 10:03:10;;;;;;;2.75;0.82;;;31.90;14.80;;;;;;5033076;28;20083;-64
2021/04/25 10:05:38;;;;;;;2.40;0.80;;;29.10;15.50;;;;;;5033368;28;20042;-65
2021/04/25 10:08:05;;;;;;;2.55;0.70;;;29.40;16.60;;;;;;5014847;28;20053;-66
2021/04/25 10:10:31;;;;;;;2.70;0.80;;;32.00;16.90;;;;;;5033211;28;20049;-66
2021/04/25 10:12:57;;;;;;;3.25;0.70;;;33.80;16.60;;;;;;5014783;28;20453;-66
2021/04/25 10:15:24;;;;;;;1.98;0.60;;;35.00;16.50;;;;;;5033236;28;20099;-66
2021/04/25 10:17:51;;;;;;;2.17;0.70;;;37.00;16.50;;;;;;5033065;28;20052;-66
2021/04/25 10:20:19;;;;;;;1.75;0.68;;;38.10;15.90;;;;;;5032855;28;20120;-65
2021/04/25 10:22:47;;;;;;;2.17;0.73;;;37.10;15.20;;;;;;5033167;28;20124;-65
2021/04/25 10:25:30;;;;;;;1.15;0.68;;;36.00;15.30;;;;;;5032558;28;20041;-66
2021/04/25 10:28:00;;;;;;;2.50;0.70;;;35.60;15.20;;;;;;5032952;28;20044;-65
2021/04/25 10:30:34;;;;;;;1.25;0.68;;;32.40;14.70;;;;;;5032318;28;20485;-64
2021/04/25 10:33:01;;;;;;;1.75;0.70;;;29.50;14.90;;;;;;5032909;28;20121;-65
2021/04/25 10:35:32;;;;;;;2.10;1.00;;;28.50;15.90;;;;;;5014532;28;20096;-65
2021/04/25 10:37:59;;;;;;;2.20;0.80;;;30.50;16.70;;;;;;5015840;28;20079;-66
2021/04/25 10:40:32;;;;;;;1.38;0.60;;;33.40;16.30;;;;;;5032242;28;20037;-66
2021/04/25 10:42:57;;;;;;;1.98;0.70;;;35.80;16.20;;;;;;5015200;28;20120;-66
2021/04/25 10:45:30;;;;;;;1.60;0.60;;;36.10;15.50;;;;;;5032704;28;20129;-66
2021/04/25 10:48:18;;;;;;;1.17;0.60;;;35.30;14.90;;;;;;5014412;28;20033;-65
2021/04/25 10:51:07;;;;;;;1.48;0.63;;;31.80;14.40;;;;;;5031993;28;20040;-64
2021/04/25 10:53:36;;;;;;;1.30;0.70;;;28.40;14.60;;;;;;5032612;28;20041;-66
2021/04/25 10:56:14;;;;;;;1.42;0.68;;;25.10;14.90;;;;;;5032270;28;20585;-66
2021/04/25 10:58:41;;;;;;;3.38;0.70;;;22.80;15.90;;;;;;5032303;28;20047;-67
2021/04/25 11:01:08;;;;;;;3.13;0.65;;;22.60;17.30;;;;;;5014020;28;20037;-68
2021/04/25 11:03:33;;;;;;;1.45;0.43;;;26.00;18.40;;;;;;5032344;28;20045;-65
2021/04/25 11:05:59;;;;;;;2.03;0.70;;;29.80;17.70;;;;;;5014661;28;20044;-65
2021/04/25 11:08:31;;;;;;;1.65;0.80;;;32.40;16.90;;;;;;5031484;28;20041;-66
2021/04/25 11:11:10;;;;;;;2.80;0.70;;;34.80;16.00;;;;;;5032093;28;20482;-66
2021/04/25 11:13:42;;;;;;;3.13;0.70;;;36.40;15.70;;;;;;5031899;28;20037;-66
2021/04/25 11:16:16;;;;;;;2.03;0.65;;;37.20;15.40;;;;;;5014421;28;20044;-66
2021/04/25 11:19:09;;;;;;;1.77;0.60;;;37.80;15.10;;;;;;5030887;28;20091;-66
2021/04/25 11:21:42;;;;;;;1.65;0.65;;;38.20;15.00;;;;;;5013716;28;20437;-67
2021/04/25 11:24:08;;;;;;;1.65;0.50;;;38.80;15.00;;;;;;5014585;28;20057;-67
2021/04/25 11:26:44;;;;;;;1.10;0.52;;;39.40;15.10;;;;;;5032197;28;20111;-66
2021/04/25 11:29:27;;;;;;;2.58;0.63;;;37.60;14.20;;;;;;5031422;28;20212;-67
2021/04/25 11:31:58;;;;;;;2.25;0.70;;;34.70;14.10;;;;;;5031298;28;20397;-66
2021/04/25 11:34:34;;;;;;;0.65;0.50;;;34.20;14.90;;;;;;5031877;28;20034;-67
2021/04/25 11:37:18;;;;;;;0.80;0.50;;;33.10;14.30;;;;;;5031051;28;20037;-66
2021/04/25 11:39:53;;;;;;;1.92;0.65;;;33.30;15.40;;;;;;5031717;28;20033;-66
2021/04/25 11:42:33;;;;;;;2.22;0.60;;;35.00;15.40;;;;;;5013814;28;20645;-66
2021/04/25 11:45:02;;;;;;;1.95;0.60;;;37.30;15.60;;;;;;5031399;28;20127;-66
2021/04/25 11:47:30;;;;;;;1.73;0.50;;;39.20;15.30;;;;;;5031170;28;20041;-66
2021/04/25 11:49:58;;;;;;;1.80;0.80;;;40.10;14.90;;;;;;5031553;28;20030;-66
2021/04/25 11:52:34;;;;;;;0.85;0.50;;;39.90;14.40;;;;;;5014129;28;20398;-66
2021/04/25 11:55:01;;;;;;;0.88;0.50;;;38.40;14.00;;;;;;4997531;28;20537;-65
2021/04/25 11:57:29;;;;;;;1.85;0.50;;;35.00;13.70;;;;;;5030612;28;20129;-65
2021/04/25 12:00:01;;;;;;;1.38;0.60;;;32.30;14.40;;;;;;5031428;28;20037;-69
2021/04/25 12:02:34;;;;;;;0.50;0.50;;;32.90;15.30;;;;;;5030634;28;20059;-62
2021/04/25 12:05:05;;;;;;;2.25;0.60;;;34.60;15.40;;;;;;5031218;28;20037;-65
2021/04/25 12:07:37;;;;;;;2.83;0.85;;;35.50;15.20;;;;;;5031137;28;20037;-65
2021/04/25 12:10:12;;;;;;;1.00;0.60;;;36.00;15.20;;;;;;5013250;28;20033;-65
2021/04/25 12:12:54;;;;;;;2.22;0.40;;;36.30;15.00;;;;;;5031436;28;20044;-64
2021/04/25 12:15:19;;;;;;;3.13;0.50;;;36.00;14.70;;;;;;5030875;28;20044;-64
2021/04/25 12:17:56;;;;;;;1.77;0.60;;;35.10;14.50;;;;;;5030858;28;20029;-64
2021/04/25 12:20:22;;;;;;;1.65;0.73;;;34.30;14.50;;;;;;5030391;28;20037;-64
2021/04/25 12:22:49;;;;;;;0.77;0.50;;;33.30;14.60;;;;;;5031214;28;20041;-63
2021/04/25 12:25:15;;;;;;;1.90;0.60;;;32.70;14.70;;;;;;5031161;28;20071;-65
2021/04/25 12:27:54;;;;;;;1.85;0.93;;;32.10;14.70;;;;;;5030656;28;20052;-68
2021/04/25 12:30:28;;;;;;;2.50;0.65;;;31.40;14.70;;;;;;5012718;28;20048;-67
2021/04/25 12:33:01;;;;;;;1.80;0.60;;;31.10;14.90;;;;;;5013338;28;20122;-67
2021/04/25 12:35:26;;;;;;;1.20;0.50;;;31.00;15.10;;;;;;5030189;28;20497;-67
2021/04/25 12:37:52;;;;;;;2.67;0.65;;;31.40;15.40;;;;;;5012785;28;20060;-68
2021/04/25 12:40:32;;;;;;;1.17;0.50;;;31.50;15.20;;;;;;5030515;28;20502;-67
2021/04/25 12:43:14;;;;;;;1.48;0.60;;;31.00;14.80;;;;;;5030289;28;20037;-66
2021/04/25 12:45:43;;;;;;;2.83;0.45;;;30.10;14.50;;;;;;5030169;28;20053;-65
2021/04/25 12:48:31;;;;;;;1.63;0.63;;;29.30;14.60;;;;;;5030303;28;20406;-64
2021/04/25 12:51:02;;;;;;;2.95;0.47;;;28.50;14.80;;;;;;5030164;28;20045;-66
2021/04/25 12:53:28;;;;;;;0.70;0.47;;;27.50;14.70;;;;;;5030598;28;20034;-66